Time;durP1;ratioP1;P1;durP2;ratioP2;P2;SDS_P1;SDS_P2;PMS_P1;PMS_P2;Temp;Humidity;BMP_temperature;BMP_pressure;BME280_temperature;BME280_humidity;BME280_pressure;Samples;Min_cycle;Max_cycle;Signal;HPM_P1;HPM_P2
2021/01/27 00:01:47;;;;;;;13.00;8.63;;;1.70;99.90;;;;;;5071989;28;20183;-73
2021/01/27 00:04:12;;;;;;;14.50;8.60;;;1.70;99.90;;;;;;5072096;28;20174;-72
2021/01/27 00:06:39;;;;;;;13.47;8.53;;;1.70;99.90;;;;;;5071613;28;20608;-72
2021/01/27 00:09:05;;;;;;;14.07;9.33;;;1.70;99.90;;;;;;5071985;28;20216;-72
2021/01/27 00:11:30;;;;;;;14.13;9.10;;;1.70;99.90;;;;;;5072204;28;20416;-71
2021/01/27 00:13:55;;;;;;;14.60;9.20;;;1.70;99.90;;;;;;5071952;28;20571;-72
2021/01/27 00:16:21;;;;;;;14.00;9.60;;;1.70;99.90;;;;;;5071977;28;20185;-72
2021/01/27 00:18:46;;;;;;;14.43;9.70;;;1.70;99.90;;;;;;5071949;28;20246;-72
2021/01/27 00:21:12;;;;;;;18.10;10.67;;;1.70;99.90;;;;;;5071922;28;20490;-72
2021/01/27 00:23:37;;;;;;;16.27;12.30;;;1.70;99.90;;;;;;5071887;28;20192;-72
2021/01/27 00:26:03;;;;;;;19.03;11.40;;;1.70;99.90;;;;;;5071766;28;20186;-72
2021/01/27 00:28:28;;;;;;;17.00;10.03;;;1.70;99.90;;;;;;5071733;28;20201;-73
2021/01/27 00:30:54;;;;;;;17.70;10.60;;;1.70;99.90;;;;;;5071640;28;20670;-72
2021/01/27 00:33:19;;;;;;;23.43;13.20;;;1.70;99.90;;;;;;5071625;28;20174;-72
2021/01/27 00:35:47;;;;;;;17.70;11.37;;;1.70;99.90;;;;;;5071559;28;20169;-72
2021/01/27 00:38:19;;;;;;;19.60;12.60;;;1.70;99.90;;;;;;5071590;28;20167;-72
2021/01/27 00:40:45;;;;;;;22.30;12.80;;;1.70;99.90;;;;;;5074164;28;20428;-72
2021/01/27 00:43:11;;;;;;;21.90;13.20;;;1.70;99.90;;;;;;5075683;28;20404;-72
2021/01/27 00:45:37;;;;;;;23.07;13.50;;;1.70;99.90;;;;;;5075427;28;20412;-72
2021/01/27 00:48:03;;;;;;;20.90;12.80;;;1.70;99.90;;;;;;5075446;28;20501;-72
2021/01/27 00:50:29;;;;;;;23.53;13.07;;;1.70;99.90;;;;;;5075398;28;20182;-72
2021/01/27 00:52:54;;;;;;;21.10;13.17;;;1.70;99.90;;;;;;5075489;28;20420;-73
2021/01/27 00:55:23;;;;;;;18.73;13.13;;;1.60;99.90;;;;;;5075292;28;20213;-72
2021/01/27 00:57:48;;;;;;;19.63;13.03;;;1.70;99.90;;;;;;5075258;28;20336;-72
2021/01/27 01:00:27;;;;;;;17.20;12.60;;;1.60;99.90;;;;;;5075192;28;20537;-70
2021/01/27 01:02:53;;;;;;;20.67;12.93;;;1.60;99.90;;;;;;5075271;28;20170;-71
2021/01/27 01:05:25;;;;;;;19.53;12.63;;;1.60;99.90;;;;;;5075042;28;20408;-71
2021/01/27 01:07:51;;;;;;;17.90;12.07;;;1.70;99.90;;;;;;5074906;28;20198;-71
2021/01/27 01:10:24;;;;;;;26.03;12.70;;;1.70;99.90;;;;;;5075206;28;20456;-71
2021/01/27 01:12:50;;;;;;;20.90;11.63;;;1.80;99.90;;;;;;5075064;28;20635;-71
2021/01/27 01:15:16;;;;;;;20.70;12.43;;;1.70;99.90;;;;;;5073748;28;20419;-71
2021/01/27 01:17:42;;;;;;;19.47;12.27;;;1.60;99.90;;;;;;5074894;28;20812;-71
2021/01/27 01:20:14;;;;;;;21.77;13.03;;;1.60;99.90;;;;;;5074916;28;20494;-71
2021/01/27 01:22:47;;;;;;;17.10;12.20;;;1.60;99.90;;;;;;5074896;28;20166;-71
2021/01/27 01:25:16;;;;;;;15.80;12.03;;;1.60;99.90;;;;;;5074832;28;20411;-71
2021/01/27 01:27:42;;;;;;;22.10;11.30;;;1.60;99.90;;;;;;5074471;28;20444;-71
2021/01/27 01:30:18;;;;;;;21.80;12.27;;;1.60;99.90;;;;;;5074677;28;20778;-71
2021/01/27 01:32:43;;;;;;;18.47;12.00;;;1.60;99.90;;;;;;5074631;28;20439;-70
2021/01/27 01:35:10;;;;;;;24.43;15.13;;;1.60;99.90;;;;;;5074558;28;20848;-71
2021/01/27 01:37:38;;;;;;;21.37;13.93;;;1.60;99.90;;;;;;5074538;28;20166;-71
2021/01/27 01:40:05;;;;;;;16.57;10.87;;;1.70;99.90;;;;;;5074375;28;20609;-71
2021/01/27 01:42:31;;;;;;;20.00;13.63;;;1.60;99.90;;;;;;5074352;28;20413;-71
2021/01/27 01:44:56;;;;;;;22.03;13.30;;;1.60;99.90;;;;;;5074383;28;20408;-71
2021/01/27 01:47:21;;;;;;;21.20;12.27;;;1.70;99.90;;;;;;5074249;28;20198;-72
2021/01/27 01:49:49;;;;;;;17.00;12.73;;;1.60;99.90;;;;;;5074392;28;20240;-71
2021/01/27 01:52:14;;;;;;;19.63;12.33;;;1.60;99.90;;;;;;5073336;28;20201;-71
2021/01/27 01:54:49;;;;;;;21.77;13.33;;;1.60;99.90;;;;;;5074385;28;20763;-71
2021/01/27 01:57:19;;;;;;;23.53;12.57;;;1.60;99.90;;;;;;5074123;28;20625;-72
2021/01/27 01:59:53;;;;;;;17.83;12.30;;;1.70;99.90;;;;;;5074282;28;20427;-70
2021/01/27 02:02:20;;;;;;;21.53;11.40;;;1.60;99.90;;;;;;5074296;28;20428;-73
2021/01/27 02:04:54;;;;;;;20.77;12.07;;;1.60;99.90;;;;;;5071965;28;20924;-70
2021/01/27 02:07:21;;;;;;;17.87;11.50;;;1.60;99.90;;;;;;5073759;28;20463;-71
2021/01/27 02:09:47;;;;;;;19.30;12.13;;;1.50;99.90;;;;;;5073977;28;20409;-72
2021/01/27 02:12:32;;;;;;;17.07;10.47;;;1.50;99.90;;;;;;5072396;28;20546;-71
2021/01/27 02:15:22;;;;;;;23.60;12.97;;;1.50;99.90;;;;;;5073966;28;20552;-71
2021/01/27 02:18:03;;;;;;;17.43;10.10;;;1.50;99.90;;;;;;5073653;28;20411;-71
2021/01/27 02:21:05;;;;;;;21.03;12.60;;;1.50;99.90;;;;;;5073790;28;20423;-72
2021/01/27 02:23:52;;;;;;;23.27;12.33;;;1.40;99.90;;;;;;5073899;28;20415;-72
2021/01/27 02:26:45;;;;;;;20.30;12.43;;;1.40;99.90;;;;;;5073493;28;20441;-71
2021/01/27 02:29:30;;;;;;;20.07;12.50;;;1.40;99.90;;;;;;5073657;28;20513;-72
2021/01/27 02:32:17;;;;;;;20.73;9.93;;;1.50;99.90;;;;;;5073485;28;20416;-72
2021/01/27 02:35:09;;;;;;;18.10;10.63;;;1.40;99.90;;;;;;5073397;28;20412;-72
2021/01/27 02:37:47;;;;;;;18.40;9.97;;;1.30;99.90;;;;;;5073458;28;20400;-71
2021/01/27 02:40:21;;;;;;;22.27;13.20;;;1.30;99.90;;;;;;5073597;28;20400;-71
2021/01/27 02:42:57;;;;;;;20.33;12.70;;;1.30;99.90;;;;;;5073417;28;20771;-72
2021/01/27 02:45:28;;;;;;;23.43;13.00;;;1.30;99.90;;;;;;5073407;28;20385;-72
2021/01/27 02:47:59;;;;;;;21.97;12.23;;;1.20;99.90;;;;;;5073086;28;20807;-72
2021/01/27 02:50:32;;;;;;;17.53;10.90;;;1.20;99.90;;;;;;5073063;28;20425;-71
2021/01/27 02:53:05;;;;;;;23.03;11.93;;;1.10;99.90;;;;;;5073279;28;20393;-72
2021/01/27 02:55:39;;;;;;;22.40;12.63;;;1.10;99.90;;;;;;5072895;28;20452;-72
2021/01/27 02:58:38;;;;;;;22.77;13.37;;;1.00;99.90;;;;;;5073185;28;20409;-72
2021/01/27 03:01:07;;;;;;;26.33;14.90;;;0.90;99.90;;;;;;5072561;28;20482;-72
2021/01/27 03:03:40;;;;;;;22.50;14.00;;;0.80;99.90;;;;;;5072843;28;20408;-72
2021/01/27 03:06:10;;;;;;;27.00;13.47;;;0.80;99.90;;;;;;5072806;28;20451;-72
2021/01/27 03:08:41;;;;;;;24.17;15.60;;;0.70;99.90;;;;;;5072680;28;20452;-72
2021/01/27 03:11:18;;;;;;;27.70;15.37;;;0.60;99.90;;;;;;5072662;28;20791;-71
2021/01/27 03:13:45;;;;;;;23.70;15.37;;;0.60;99.90;;;;;;5072816;28;20404;-71
2021/01/27 03:16:15;;;;;;;27.63;16.73;;;0.50;99.90;;;;;;5072614;28;20893;-71
2021/01/27 03:18:46;;;;;;;25.20;14.57;;;0.40;99.90;;;;;;5072757;28;20416;-72
2021/01/27 03:21:23;;;;;;;25.60;15.53;;;0.40;99.90;;;;;;5072621;28;20777;-71
2021/01/27 03:23:54;;;;;;;23.53;14.33;;;0.30;99.90;;;;;;5072582;28;20404;-71
2021/01/27 03:26:32;;;;;;;21.87;14.67;;;0.30;99.90;;;;;;5072307;28;20446;-72
2021/01/27 03:29:09;;;;;;;24.77;14.53;;;0.20;99.90;;;;;;5072398;28;20982;-71
2021/01/27 03:31:35;;;;;;;24.80;13.00;;;0.20;99.90;;;;;;5072793;28;20477;-72
2021/01/27 03:34:14;;;;;;;22.70;14.27;;;0.10;99.90;;;;;;5072444;28;20413;-72
2021/01/27 03:36:49;;;;;;;26.83;17.60;;;0.10;99.90;;;;;;5070959;28;20174;-71
2021/01/27 03:39:15;;;;;;;26.00;15.03;;;0.10;99.90;;;;;;5072305;28;20781;-72
2021/01/27 03:41:53;;;;;;;21.50;14.50;;;0.10;99.90;;;;;;5072216;28;20434;-72
2021/01/27 03:44:23;;;;;;;26.53;16.27;;;0.00;99.90;;;;;;5072406;28;20412;-72
2021/01/27 03:47:00;;;;;;;26.13;15.40;;;0.10;99.90;;;;;;5072202;28;20412;-72
2021/01/27 03:49:42;;;;;;;29.00;16.60;;;0.10;99.90;;;;;;5072175;28;20707;-72
2021/01/27 03:52:16;;;;;;;25.07;16.70;;;0.10;99.90;;;;;;5072119;28;20427;-72
2021/01/27 03:54:48;;;;;;;33.17;17.37;;;0.10;99.90;;;;;;5072125;28;20393;-72
2021/01/27 03:57:20;;;;;;;32.80;17.97;;;0.20;99.90;;;;;;5070602;28;20427;-72
2021/01/27 03:59:46;;;;;;;36.40;18.30;;;0.20;99.90;;;;;;5072205;28;20440;-72
2021/01/27 04:02:19;;;;;;;46.53;19.90;;;0.20;99.90;;;;;;5071850;28;20428;-71
2021/01/27 04:04:45;;;;;;;40.13;21.60;;;0.20;99.90;;;;;;5071855;28;20409;-72
2021/01/27 04:07:10;;;;;;;35.73;19.47;;;0.20;99.90;;;;;;5071539;28;20427;-71
2021/01/27 04:09:36;;;;;;;34.27;19.43;;;0.30;99.90;;;;;;5072040;28;20170;-72
2021/01/27 04:12:02;;;;;;;33.80;19.50;;;0.20;99.90;;;;;;5072202;28;20201;-72
2021/01/27 04:14:27;;;;;;;31.80;17.73;;;0.30;99.90;;;;;;5071477;28;20535;-72
2021/01/27 04:16:53;;;;;;;36.60;19.30;;;0.30;99.90;;;;;;5071692;28;20405;-72
2021/01/27 04:19:18;;;;;;;40.20;19.83;;;0.40;99.90;;;;;;5071829;28;20178;-71
2021/01/27 04:21:44;;;;;;;37.30;19.27;;;0.40;99.90;;;;;;5071819;28;20273;-72
2021/01/27 04:24:09;;;;;;;36.33;21.77;;;0.40;99.90;;;;;;5071724;28;20650;-71
2021/01/27 04:26:36;;;;;;;32.70;19.37;;;0.50;99.90;;;;;;5071735;28;20177;-71
2021/01/27 04:29:03;;;;;;;30.00;19.80;;;0.50;99.90;;;;;;5071499;28;20237;-71
2021/01/27 04:31:28;;;;;;;32.67;16.90;;;0.50;99.90;;;;;;5070413;28;20436;-72
2021/01/27 04:33:54;;;;;;;39.50;21.17;;;0.50;99.90;;;;;;5071912;28;20405;-71
2021/01/27 04:36:20;;;;;;;37.40;20.27;;;0.60;99.90;;;;;;5071713;28;20171;-72
2021/01/27 04:38:45;;;;;;;30.40;18.13;;;0.60;99.90;;;;;;5071756;28;20636;-71
2021/01/27 04:41:10;;;;;;;36.50;20.63;;;0.50;99.90;;;;;;5071528;28;20194;-71
2021/01/27 04:43:41;;;;;;;33.47;22.70;;;0.50;99.90;;;;;;5071605;28;20162;-72
2021/01/27 04:46:29;;;;;;;40.73;20.30;;;0.50;99.90;;;;;;5071688;28;20174;-71
2021/01/27 04:48:55;;;;;;;35.80;20.97;;;0.50;99.90;;;;;;5051603;28;20456;-72
2021/01/27 04:51:26;;;;;;;37.20;21.87;;;0.60;99.90;;;;;;5051582;28;20428;-71
2021/01/27 04:54:05;;;;;;;33.33;18.57;;;0.60;99.90;;;;;;5051568;28;20185;-71
2021/01/27 04:57:13;;;;;;;23.63;16.33;;;0.60;99.90;;;;;;5061836;28;20424;-72
2021/01/27 04:59:49;;;;;;;25.20;15.83;;;0.50;99.90;;;;;;5071940;28;20466;-71
2021/01/27 05:02:24;;;;;;;29.47;18.00;;;0.40;99.90;;;;;;5071470;28;20451;-71
2021/01/27 05:05:05;;;;;;;30.70;16.80;;;0.50;99.90;;;;;;5071423;28;20466;-71
2021/01/27 05:07:43;;;;;;;31.70;18.03;;;0.40;99.90;;;;;;5071185;28;20467;-72
2021/01/27 05:10:13;;;;;;;29.70;18.13;;;0.50;99.90;;;;;;5071343;28;20411;-71
2021/01/27 05:12:47;;;;;;;31.60;16.70;;;0.50;99.90;;;;;;5071615;28;20893;-71
2021/01/27 05:15:13;;;;;;;26.80;16.77;;;0.50;99.90;;;;;;5071276;28;20478;-71
2021/01/27 05:17:43;;;;;;;31.43;18.17;;;0.50;99.90;;;;;;5071250;28;20408;-72
2021/01/27 05:20:14;;;;;;;37.23;19.30;;;0.40;99.90;;;;;;5071086;28;20519;-72
2021/01/27 05:22:40;;;;;;;37.40;19.93;;;0.40;99.90;;;;;;5071195;28;20416;-72
2021/01/27 05:25:10;;;;;;;37.10;19.50;;;0.30;99.90;;;;;;5070944;28;20473;-71
2021/01/27 05:27:37;;;;;;;32.30;18.83;;;0.30;99.90;;;;;;5072965;28;20733;-71
2021/01/27 05:30:21;;;;;;;34.00;19.33;;;0.50;99.90;;;;;;5074891;28;20503;-71
2021/01/27 05:32:51;;;;;;;33.70;19.67;;;0.50;99.90;;;;;;5074766;28;20495;-71
2021/01/27 05:35:35;;;;;;;37.97;21.97;;;0.50;99.90;;;;;;5074803;28;20446;-72
2021/01/27 05:38:31;;;;;;;35.13;19.93;;;0.40;99.90;;;;;;5074761;28;20400;-71
2021/01/27 05:41:27;;;;;;;36.93;20.53;;;0.50;99.90;;;;;;5074487;28;20455;-72
2021/01/27 05:44:06;;;;;;;37.20;21.43;;;0.50;99.90;;;;;;5073899;28;20421;-71
2021/01/27 05:46:37;;;;;;;39.50;21.93;;;0.60;99.90;;;;;;5074404;28;20415;-71
2021/01/27 05:49:09;;;;;;;47.63;23.10;;;0.70;99.90;;;;;;5074262;28;20459;-72
2021/01/27 05:51:38;;;;;;;49.70;24.70;;;0.70;99.90;;;;;;5074230;28;20440;-71
2021/01/27 05:54:23;;;;;;;48.40;25.13;;;0.80;99.90;;;;;;5074398;28;20835;-71
2021/01/27 05:56:49;;;;;;;57.73;26.80;;;0.80;99.90;;;;;;5074111;28;20409;-72
2021/01/27 05:59:22;;;;;;;51.73;26.33;;;0.90;99.90;;;;;;5074245;28;20763;-72
2021/01/27 06:01:50;;;;;;;47.37;26.07;;;1.00;99.90;;;;;;5074075;28;20471;-72
2021/01/27 06:04:23;;;;;;;49.33;26.83;;;1.00;99.90;;;;;;5074153;28;20419;-71
2021/01/27 06:06:49;;;;;;;51.50;25.33;;;1.00;99.90;;;;;;5072328;28;20436;-72
2021/01/27 06:09:28;;;;;;;45.87;24.93;;;1.00;99.90;;;;;;5073686;28;20554;-72
2021/01/27 06:12:07;;;;;;;41.40;24.40;;;1.10;99.90;;;;;;5073989;28;20236;-71
2021/01/27 06:14:33;;;;;;;42.40;23.77;;;1.10;99.90;;;;;;5073946;28;20400;-72
2021/01/27 06:17:33;;;;;;;42.53;23.80;;;1.10;99.90;;;;;;5073795;28;20487;-71
2021/01/27 06:20:08;;;;;;;41.10;25.00;;;1.10;99.90;;;;;;5069734;28;20489;-72
2021/01/27 06:23:15;;;;;;;42.73;25.00;;;1.20;99.90;;;;;;5073747;28;20774;-71
2021/01/27 06:25:50;;;;;;;45.30;25.70;;;1.20;99.90;;;;;;5052887;28;20767;-71
2021/01/27 06:28:22;;;;;;;46.13;25.43;;;1.20;99.90;;;;;;5053557;28;20468;-71
2021/01/27 06:31:11;;;;;;;46.40;24.80;;;1.30;99.90;;;;;;5053596;28;20425;-72
2021/01/27 06:34:03;;;;;;;40.27;21.83;;;1.30;99.90;;;;;;5053658;28;20448;-71
2021/01/27 06:36:53;;;;;;;40.27;23.50;;;1.30;99.90;;;;;;5053616;28;20402;-71
2021/01/27 06:39:37;;;;;;;34.20;23.10;;;1.40;99.90;;;;;;5053060;28;20409;-71
2021/01/27 06:42:42;;;;;;;45.83;21.83;;;1.60;99.90;;;;;;5053208;28;20496;-71
2021/01/27 06:45:22;;;;;;;38.27;22.90;;;1.40;99.90;;;;;;5059674;28;20481;-72
2021/01/27 06:48:21;;;;;;;44.10;25.80;;;1.50;99.90;;;;;;5071743;28;20452;-71
2021/01/27 06:50:52;;;;;;;37.40;20.00;;;1.50;99.90;;;;;;5067176;28;20447;-71
2021/01/27 06:54:02;;;;;;;39.80;23.13;;;1.60;99.90;;;;;;5073019;28;20721;-71
2021/01/27 06:57:05;;;;;;;41.03;20.77;;;1.50;99.90;;;;;;5063584;28;20440;-72
2021/01/27 07:00:01;;;;;;;31.10;21.00;;;1.50;99.90;;;;;;5073034;28;20408;-71
2021/01/27 07:02:49;;;;;;;52.57;23.43;;;1.60;99.90;;;;;;5072799;28;20791;-72
2021/01/27 07:05:36;;;;;;;44.60;25.47;;;1.60;99.90;;;;;;5052746;28;20500;-71
2021/01/27 07:08:29;;;;;;;37.57;23.50;;;1.60;99.90;;;;;;5052932;28;21030;-71
2021/01/27 07:11:05;;;;;;;45.70;25.33;;;1.70;99.90;;;;;;5042433;28;20472;-71
2021/01/27 07:14:13;;;;;;;41.13;23.67;;;1.70;99.90;;;;;;5052865;28;20408;-72
2021/01/27 07:16:57;;;;;;;45.33;25.30;;;1.60;99.90;;;;;;5053007;28;20461;-71
2021/01/27 07:19:54;;;;;;;42.90;24.50;;;1.70;99.90;;;;;;5062177;28;20431;-72
2021/01/27 07:22:38;;;;;;;42.77;22.63;;;1.70;99.90;;;;;;5052705;28;20504;-72
2021/01/27 07:25:11;;;;;;;37.27;22.73;;;1.70;99.90;;;;;;5062887;28;20404;-71
2021/01/27 07:27:45;;;;;;;38.50;20.60;;;1.70;99.90;;;;;;5072309;28;20455;-71
2021/01/27 07:30:17;;;;;;;44.43;25.57;;;1.70;99.90;;;;;;5072338;28;20775;-72
2021/01/27 07:32:50;;;;;;;38.03;21.67;;;1.80;99.90;;;;;;5072638;28;20852;-71
2021/01/27 07:35:29;;;;;;;36.83;23.60;;;1.90;99.90;;;;;;5072439;28;20393;-72
2021/01/27 07:38:21;;;;;;;36.13;21.10;;;1.80;99.90;;;;;;5072783;28;20507;-72
2021/01/27 07:40:53;;;;;;;40.10;24.10;;;1.90;99.90;;;;;;5067690;28;20429;-72
2021/01/27 07:43:23;;;;;;;32.80;21.10;;;2.00;99.90;;;;;;5072648;28;20514;-72
2021/01/27 07:45:52;;;;;;;39.90;22.97;;;1.90;99.90;;;;;;5072417;28;20412;-71
2021/01/27 07:48:45;;;;;;;36.57;21.83;;;2.00;99.90;;;;;;5071942;28;20557;-74
2021/01/27 07:51:18;;;;;;;39.97;22.07;;;2.00;99.90;;;;;;5071613;28;20798;-75
2021/01/27 07:54:06;;;;;;;35.97;21.50;;;2.00;99.90;;;;;;5072367;28;20415;-75
2021/01/27 07:56:41;;;;;;;32.70;20.97;;;2.00;99.90;;;;;;5066461;28;20458;-71
2021/01/27 07:59:29;;;;;;;35.90;20.47;;;2.10;99.90;;;;;;5072115;28;20404;-71
2021/01/27 08:02:23;;;;;;;31.33;19.63;;;2.00;99.90;;;;;;5071998;28;20466;-71
2021/01/27 08:04:59;;;;;;;33.60;21.23;;;2.10;99.90;;;;;;5071797;28;20423;-72
2021/01/27 08:07:41;;;;;;;32.83;19.40;;;2.20;99.90;;;;;;5071716;28;20432;-71
2021/01/27 08:10:13;;;;;;;37.70;22.60;;;2.20;99.90;;;;;;5071706;28;20506;-71
2021/01/27 08:12:43;;;;;;;27.37;19.60;;;2.30;99.90;;;;;;5071924;28;20829;-70
2021/01/27 08:15:09;;;;;;;33.97;19.87;;;2.30;99.90;;;;;;5071700;28;20487;-71
2021/01/27 08:17:45;;;;;;;25.80;18.33;;;2.30;99.90;;;;;;5071610;28;20450;-70
2021/01/27 08:20:25;;;;;;;28.27;18.07;;;2.20;99.90;;;;;;5071663;28;20454;-70
2021/01/27 08:22:53;;;;;;;30.60;18.93;;;2.20;99.90;;;;;;5071621;28;20449;-70
2021/01/27 08:25:49;;;;;;;29.20;17.80;;;2.30;99.90;;;;;;5071260;28;20492;-70
2021/01/27 08:28:33;;;;;;;29.33;18.77;;;2.40;99.90;;;;;;5063606;28;20448;-71
2021/01/27 08:31:07;;;;;;;28.80;17.33;;;2.40;99.90;;;;;;5071514;28;20431;-71
2021/01/27 08:33:46;;;;;;;24.60;18.27;;;2.40;99.90;;;;;;5070260;28;20423;-71
2021/01/27 08:36:33;;;;;;;30.37;18.97;;;2.40;99.90;;;;;;5071869;28;20911;-72
2021/01/27 08:38:58;;;;;;;25.33;17.40;;;2.50;99.90;;;;;;5070220;28;20965;-70
2021/01/27 08:41:51;;;;;;;26.43;18.47;;;2.50;99.90;;;;;;5071388;28;20433;-70
2021/01/27 08:44:20;;;;;;;26.20;16.90;;;2.50;99.90;;;;;;5070278;28;20174;-71
2021/01/27 08:46:54;;;;;;;27.53;18.53;;;2.60;99.90;;;;;;5071319;28;20416;-70
2021/01/27 08:49:44;;;;;;;26.00;18.57;;;2.60;99.90;;;;;;5071232;28;20470;-70
2021/01/27 08:52:09;;;;;;;30.37;20.80;;;3.10;99.90;;;;;;5071296;28;20421;-70
2021/01/27 08:54:35;;;;;;;37.23;21.37;;;2.70;99.90;;;;;;5069593;28;20420;-71
2021/01/27 08:57:21;;;;;;;24.80;18.90;;;2.60;99.90;;;;;;5070824;28;20588;-70
2021/01/27 09:00:21;;;;;;;32.60;21.43;;;2.60;99.90;;;;;;5071206;28;20669;-71
2021/01/27 09:03:00;;;;;;;31.43;23.20;;;2.60;99.90;;;;;;5075335;28;20804;-70
2021/01/27 09:05:26;;;;;;;28.40;19.30;;;2.70;99.90;;;;;;5075344;28;20518;-70
2021/01/27 09:08:04;;;;;;;26.87;18.30;;;2.80;99.90;;;;;;5075030;28;20913;-74
2021/01/27 09:10:36;;;;;;;29.27;19.20;;;2.70;99.90;;;;;;5073677;28;20193;-69
2021/01/27 09:13:28;;;;;;;29.53;19.23;;;2.80;99.90;;;;;;5073337;28;20949;-70
2021/01/27 09:15:57;;;;;;;32.10;19.80;;;2.80;99.90;;;;;;5075037;28;20392;-70
2021/01/27 09:18:23;;;;;;;25.57;17.20;;;2.80;99.90;;;;;;5074719;28;20396;-70
2021/01/27 09:20:48;;;;;;;27.80;19.87;;;2.80;99.90;;;;;;5074620;28;20489;-71
2021/01/27 09:23:17;;;;;;;28.47;19.67;;;2.90;99.90;;;;;;5067534;28;20177;-70
2021/01/27 09:25:48;;;;;;;31.27;19.90;;;3.00;99.90;;;;;;5074164;28;20493;-70
2021/01/27 09:28:22;;;;;;;25.10;17.40;;;3.00;99.90;;;;;;5074733;28;20497;-70
2021/01/27 09:30:49;;;;;;;27.83;19.80;;;3.00;99.90;;;;;;5074748;28;20431;-71
2021/01/27 09:33:16;;;;;;;27.33;18.50;;;3.10;99.90;;;;;;5074500;28;20417;-70
2021/01/27 09:35:43;;;;;;;28.30;20.23;;;3.00;99.90;;;;;;5074707;28;20401;-70
2021/01/27 09:38:21;;;;;;;29.67;19.97;;;3.00;99.90;;;;;;5074701;28;20415;-70
2021/01/27 09:40:51;;;;;;;30.20;18.77;;;3.10;99.90;;;;;;5057180;28;20574;-71
2021/01/27 09:43:20;;;;;;;35.13;19.53;;;3.10;99.90;;;;;;5054507;28;20786;-70
2021/01/27 09:45:48;;;;;;;29.90;20.60;;;3.00;99.90;;;;;;5054503;28;20409;-70
2021/01/27 09:48:17;;;;;;;31.33;19.77;;;3.10;99.90;;;;;;5054284;28;20452;-70
2021/01/27 09:51:00;;;;;;;25.87;17.27;;;3.10;99.90;;;;;;5054306;28;20426;-70
2021/01/27 09:53:37;;;;;;;25.77;18.83;;;3.20;99.90;;;;;;5054454;28;20800;-70
2021/01/27 09:56:05;;;;;;;24.43;16.17;;;3.40;99.90;;;;;;5060906;28;20491;-70
2021/01/27 09:58:31;;;;;;;23.83;17.43;;;3.50;99.90;;;;;;5074033;28;20566;-69
2021/01/27 10:01:05;;;;;;;24.33;17.37;;;3.50;99.90;;;;;;5074113;28;20433;-70
2021/01/27 10:03:42;;;;;;;23.13;16.63;;;3.70;99.90;;;;;;5073817;28;20499;-70
2021/01/27 10:06:35;;;;;;;28.27;19.10;;;3.50;99.90;;;;;;5073751;28;20439;-70
2021/01/27 10:09:22;;;;;;;25.50;16.83;;;3.40;99.90;;;;;;5074115;28;20460;-71
2021/01/27 10:11:58;;;;;;;24.53;17.13;;;3.60;99.90;;;;;;5073815;28;20764;-70
2021/01/27 10:14:27;;;;;;;26.53;17.40;;;3.60;99.90;;;;;;5073687;28;20904;-70
2021/01/27 10:16:55;;;;;;;25.60;18.70;;;3.80;99.90;;;;;;5073760;28;20392;-71
2021/01/27 10:19:30;;;;;;;27.10;18.27;;;3.70;99.90;;;;;;5073845;28;20408;-70
2021/01/27 10:21:57;;;;;;;23.13;16.47;;;3.70;99.90;;;;;;5073783;28;20835;-70
2021/01/27 10:24:45;;;;;;;24.17;18.00;;;3.80;99.90;;;;;;5073579;28;20412;-70
2021/01/27 10:27:17;;;;;;;24.27;18.00;;;3.70;99.90;;;;;;5073577;28;20412;-70
2021/01/27 10:29:43;;;;;;;28.87;19.50;;;3.90;99.90;;;;;;5073487;28;20467;-70
2021/01/27 10:32:21;;;;;;;22.90;16.23;;;3.80;99.90;;;;;;5073389;28;20420;-70
2021/01/27 10:34:50;;;;;;;24.80;16.93;;;3.90;99.90;;;;;;5072272;28;20235;-72
2021/01/27 10:37:35;;;;;;;21.93;15.93;;;3.80;99.90;;;;;;5073512;28;20396;-70
2021/01/27 10:40:26;;;;;;;22.70;17.60;;;3.80;99.90;;;;;;5073553;28;20393;-70
2021/01/27 10:43:23;;;;;;;28.30;18.90;;;3.70;99.90;;;;;;5073451;28;20393;-70
2021/01/27 10:45:49;;;;;;;26.70;18.27;;;3.60;99.90;;;;;;5073491;28;20404;-70
2021/01/27 10:48:21;;;;;;;27.27;17.17;;;3.50;99.90;;;;;;5073150;28;20545;-70
2021/01/27 10:51:07;;;;;;;26.50;17.60;;;3.60;99.90;;;;;;5073491;28;20182;-71
2021/01/27 10:53:38;;;;;;;22.70;16.73;;;3.70;99.90;;;;;;5073027;28;20473;-72
2021/01/27 10:56:04;;;;;;;22.43;15.57;;;3.80;99.90;;;;;;5073038;28;20991;-69
2021/01/27 10:58:30;;;;;;;25.30;16.60;;;3.80;99.90;;;;;;5072612;28;20401;-69
2021/01/27 11:00:55;;;;;;;22.73;15.90;;;3.80;99.90;;;;;;5072764;28;20515;-70
2021/01/27 11:03:21;;;;;;;21.20;15.30;;;3.80;99.90;;;;;;5072850;28;20416;-70
2021/01/27 11:05:47;;;;;;;21.37;15.30;;;3.80;99.90;;;;;;5072961;28;20186;-70
2021/01/27 11:08:21;;;;;;;21.13;15.73;;;3.80;99.90;;;;;;5072810;28;20194;-71
2021/01/27 11:10:47;;;;;;;24.10;16.20;;;4.00;99.90;;;;;;5072668;28;20804;-70
2021/01/27 11:13:12;;;;;;;21.43;16.17;;;4.20;99.90;;;;;;5072915;28;20439;-69
2021/01/27 11:15:38;;;;;;;22.67;15.53;;;4.20;99.90;;;;;;5072919;28;20572;-69
2021/01/27 11:18:03;;;;;;;19.43;14.30;;;4.00;99.90;;;;;;5072773;28;20166;-70
2021/01/27 11:20:29;;;;;;;18.87;13.80;;;4.20;99.90;;;;;;5072761;28;20190;-70
2021/01/27 11:22:55;;;;;;;21.10;14.97;;;4.30;99.90;;;;;;5072635;28;20200;-69
2021/01/27 11:25:25;;;;;;;23.53;15.67;;;4.50;99.90;;;;;;5071675;28;20543;-69
2021/01/27 11:27:51;;;;;;;18.20;13.70;;;4.40;99.90;;;;;;5072091;28;20528;-70
2021/01/27 11:30:21;;;;;;;17.50;14.17;;;4.40;99.90;;;;;;5072390;28;20972;-70
2021/01/27 11:32:47;;;;;;;18.00;12.90;;;4.40;99.90;;;;;;5072479;28;20420;-69
2021/01/27 11:35:13;;;;;;;18.10;12.97;;;4.50;99.90;;;;;;5072317;28;20447;-70
2021/01/27 11:37:39;;;;;;;14.30;11.87;;;4.60;99.90;;;;;;5072260;28;20165;-71
2021/01/27 11:40:06;;;;;;;14.70;11.43;;;4.60;99.90;;;;;;5072287;28;20400;-70
2021/01/27 11:42:31;;;;;;;15.67;12.40;;;4.70;99.90;;;;;;5072135;28;20241;-70
2021/01/27 11:44:57;;;;;;;18.17;12.70;;;4.60;99.90;;;;;;5072104;28;20463;-70
2021/01/27 11:47:22;;;;;;;15.20;10.80;;;4.70;99.90;;;;;;5072058;28;20193;-71
2021/01/27 11:49:49;;;;;;;13.23;10.77;;;4.70;99.90;;;;;;5072134;28;20208;-70
2021/01/27 11:52:16;;;;;;;22.60;11.57;;;4.80;99.90;;;;;;5072207;28;20658;-70
2021/01/27 11:54:41;;;;;;;12.70;10.63;;;4.80;99.90;;;;;;5072148;28;20401;-68
2021/01/27 11:57:07;;;;;;;15.77;11.33;;;4.90;99.90;;;;;;5071607;28;20413;-69
2021/01/27 11:59:36;;;;;;;14.53;11.90;;;4.80;99.90;;;;;;5070968;28;20656;-70
2021/01/27 12:02:03;;;;;;;14.37;11.97;;;4.80;99.90;;;;;;5072155;28;20506;-71
2021/01/27 12:04:29;;;;;;;14.20;11.40;;;4.70;99.90;;;;;;5071994;28;20466;-70
2021/01/27 12:06:54;;;;;;;17.63;11.83;;;4.80;99.90;;;;;;5071670;28;20436;-71
2021/01/27 12:09:20;;;;;;;13.90;10.60;;;4.90;99.90;;;;;;5072768;28;20262;-72
2021/01/27 12:11:46;;;;;;;18.90;13.53;;;4.90;99.90;;;;;;5072154;28;20186;-73
2021/01/27 12:14:12;;;;;;;28.83;17.90;;;5.50;99.90;;;;;;5070938;28;20197;-74
2021/01/27 12:16:37;;;;;;;13.93;11.53;;;6.00;99.90;;;;;;5072034;28;20408;-72
2021/01/27 12:19:03;;;;;;;13.47;10.73;;;5.30;99.90;;;;;;5071780;28;20415;-70
2021/01/27 12:21:29;;;;;;;16.50;11.40;;;5.20;99.90;;;;;;5071923;28;20595;-70
2021/01/27 12:23:54;;;;;;;14.40;11.13;;;5.10;99.90;;;;;;5071978;28;20412;-70
2021/01/27 12:26:25;;;;;;;12.90;10.30;;;5.20;99.90;;;;;;5071846;28;20166;-70
2021/01/27 12:29:24;;;;;;;12.87;10.40;;;5.20;99.90;;;;;;5071654;28;20229;-69
2021/01/27 12:31:51;;;;;;;12.53;10.03;;;5.20;99.90;;;;;;5071606;28;20424;-69
2021/01/27 12:34:20;;;;;;;16.03;9.90;;;5.40;99.90;;;;;;5070640;28;20404;-69
2021/01/27 12:36:47;;;;;;;19.23;12.47;;;5.30;99.90;;;;;;5074686;28;20486;-71
2021/01/27 12:39:12;;;;;;;13.83;10.10;;;5.50;99.90;;;;;;5076061;28;20408;-70
2021/01/27 12:41:38;;;;;;;11.60;9.67;;;5.40;99.90;;;;;;5075690;28;20424;-71
2021/01/27 12:44:04;;;;;;;12.43;9.13;;;5.50;99.90;;;;;;5075680;28;20423;-70
2021/01/27 12:46:29;;;;;;;12.40;8.20;;;5.40;99.90;;;;;;5075609;28;20665;-71
2021/01/27 12:48:55;;;;;;;11.83;8.90;;;5.40;99.90;;;;;;5075536;28;20448;-69
2021/01/27 12:51:21;;;;;;;13.17;8.30;;;5.30;99.90;;;;;;5074251;28;20674;-70
2021/01/27 12:53:47;;;;;;;10.40;8.27;;;5.40;99.90;;;;;;5075392;28;20167;-71
2021/01/27 12:56:13;;;;;;;9.90;7.80;;;5.60;99.90;;;;;;5074195;28;20405;-70
2021/01/27 12:58:38;;;;;;;7.93;6.87;;;5.50;99.90;;;;;;5075501;28;20893;-70
2021/01/27 13:01:05;;;;;;;13.13;8.90;;;5.60;99.90;;;;;;5075333;28;20194;-70
2021/01/27 13:03:30;;;;;;;9.07;7.90;;;5.60;99.90;;;;;;5075558;28;20643;-71
2021/01/27 13:05:55;;;;;;;9.13;8.17;;;5.50;99.90;;;;;;5075668;28;20446;-70
2021/01/27 13:08:21;;;;;;;9.23;7.50;;;5.50;99.90;;;;;;5075895;28;20206;-71
2021/01/27 13:10:49;;;;;;;7.90;7.10;;;5.50;99.90;;;;;;5075560;28;20190;-71